Tijnje, Netherlands
Current Conditions -  °F | °C
As of 10:25 PM on Friday 24 Oct 2014 (Local Time) from EHLW Reporting Station
Haze Haze  
Wind Chill: 54°   Ceiling: 500
Heat Index: 54°   Visibility: 3mi
Dew Point: 52°   Wind: 12mph
Humidity: 94%   Direction: 180°S
Pressure: 29.94"   Gusts: NA
Location:  53.03°N, 5.99°E
Report Text: EHLW 242025Z AUTO 18010KT 4800 BR OVC005 12/11 Q1014 YLO
Loading
Personal Weather Stations






























Interactive Weather Map
Tropical Storm Tracking
New forecast layout! Learn more

10-Day Weather Forecast

Advertisements
Track Severe Weather on mobile